Time;durP1;ratioP1;P1;durP2;ratioP2;P2;SDS_P1;SDS_P2;PMS_P1;PMS_P2;Temp;Humidity;BMP_temperature;BMP_pressure;BME280_temperature;BME280_humidity;BME280_pressure;Samples;Min_cycle;Max_cycle;Signal;HPM_P1;HPM_P2
2022/07/07 00:02:04;;;;;;;0.38;0.00;;;29.20;38.20;;;;;;5075557;28;20041;-60
2022/07/07 00:04:31;;;;;;;0.47;0.00;;;29.20;38.40;;;;;;5086172;28;20059;-60
2022/07/07 00:06:59;;;;;;;0.28;0.00;;;29.20;38.50;;;;;;5082215;28;20140;-60
2022/07/07 00:09:27;;;;;;;0.20;0.20;;;29.10;38.40;;;;;;5073583;28;20032;-60
2022/07/07 00:11:54;;;;;;;0.30;0.30;;;29.10;38.50;;;;;;5079656;28;20568;-60
2022/07/07 00:14:23;;;;;;;0.00;0.00;;;29.00;38.50;;;;;;5072064;28;20047;-60
2022/07/07 00:16:50;;;;;;;0.00;0.00;;;29.00;38.70;;;;;;5070356;28;20056;-59
2022/07/07 00:19:17;;;;;;;0.05;0.00;;;29.00;38.70;;;;;;5075777;28;20044;-59
2022/07/07 00:21:44;;;;;;;0.00;0.00;;;28.90;38.70;;;;;;5077332;28;20406;-60
2022/07/07 00:24:11;;;;;;;0.00;0.00;;;28.90;38.80;;;;;;5082250;28;20036;-59
2022/07/07 00:26:38;;;;;;;0.10;0.10;;;28.80;38.80;;;;;;5081843;28;20088;-60
2022/07/07 00:29:06;;;;;;;0.10;0.05;;;28.80;38.90;;;;;;5078237;28;20041;-60
2022/07/07 00:31:35;;;;;;;0.25;0.00;;;28.80;38.90;;;;;;5081224;28;20126;-61
2022/07/07 00:34:02;;;;;;;1.38;0.00;;;28.70;39.60;;;;;;5066230;28;20631;-60
2022/07/07 00:36:29;;;;;;;0.40;0.00;;;28.70;39.10;;;;;;5077137;28;20464;-60
2022/07/07 00:38:56;;;;;;;0.10;0.00;;;28.70;39.00;;;;;;5076723;28;20032;-60
2022/07/07 00:41:23;;;;;;;0.15;0.00;;;28.70;39.20;;;;;;5085384;28;20087;-61
2022/07/07 00:43:50;;;;;;;0.80;0.15;;;28.70;39.20;;;;;;5071695;28;20418;-61
2022/07/07 00:46:18;;;;;;;0.10;0.00;;;28.60;39.20;;;;;;5089406;28;20115;-60
2022/07/07 00:48:47;;;;;;;0.75;0.10;;;28.60;39.30;;;;;;5078764;28;20041;-61
2022/07/07 00:51:14;;;;;;;1.45;0.10;;;28.60;39.40;;;;;;5077186;28;20124;-61
2022/07/07 00:53:41;;;;;;;0.22;0.08;;;28.60;39.50;;;;;;5077219;28;20042;-62
2022/07/07 00:56:08;;;;;;;0.10;0.03;;;28.50;39.50;;;;;;5071795;28;20048;-61
2022/07/07 00:58:36;;;;;;;0.10;0.00;;;28.50;39.60;;;;;;5076965;28;20048;-61
2022/07/07 01:01:04;;;;;;;2.47;0.00;;;28.50;39.50;;;;;;5074744;28;20421;-61
2022/07/07 01:03:31;;;;;;;2.08;0.00;;;28.50;40.20;;;;;;5077114;28;20037;-62
2022/07/07 01:06:02;;;;;;;0.10;0.00;;;28.50;39.60;;;;;;5076798;28;20083;-61
2022/07/07 01:08:30;;;;;;;0.75;0.10;;;28.50;39.70;;;;;;5059441;28;20040;-62
2022/07/07 01:10:57;;;;;;;0.00;0.00;;;28.40;39.70;;;;;;5071296;28;20560;-61
2022/07/07 01:13:24;;;;;;;0.90;0.00;;;28.40;39.70;;;;;;5076592;28;20052;-61
2022/07/07 01:15:51;;;;;;;0.10;0.10;;;28.40;39.80;;;;;;5074894;28;20055;-60
2022/07/07 01:18:18;;;;;;;2.30;0.22;;;28.30;39.80;;;;;;5075919;28;20040;-60
2022/07/07 01:20:48;;;;;;;0.20;0.10;;;28.30;39.80;;;;;;5075129;28;20040;-60
2022/07/07 01:23:17;;;;;;;2.40;0.10;;;28.30;39.90;;;;;;5075583;28;20036;-60
2022/07/07 01:25:44;;;;;;;0.63;0.00;;;28.30;39.90;;;;;;5075876;28;20044;-61
2022/07/07 01:28:11;;;;;;;0.08;0.00;;;28.30;40.00;;;;;;5075508;28;20118;-61
2022/07/07 01:30:38;;;;;;;0.35;0.00;;;28.20;39.80;;;;;;5076718;28;20036;-61
2022/07/07 01:33:05;;;;;;;0.30;0.10;;;28.20;40.00;;;;;;5072562;28;20067;-60
2022/07/07 01:35:32;;;;;;;0.10;0.10;;;28.20;40.00;;;;;;5072538;28;20044;-61
2022/07/07 01:37:59;;;;;;;0.60;0.10;;;28.20;40.10;;;;;;5074423;28;20048;-61
2022/07/07 01:40:27;;;;;;;0.35;0.10;;;28.20;40.10;;;;;;5076748;28;20047;-58
2022/07/07 01:42:54;;;;;;;0.20;0.00;;;28.20;40.00;;;;;;5073473;28;20048;-61
2022/07/07 01:45:21;;;;;;;0.00;0.00;;;28.20;40.10;;;;;;5074555;28;20064;-60
2022/07/07 01:47:48;;;;;;;0.17;0.17;;;28.10;40.10;;;;;;5075258;28;20036;-60
2022/07/07 01:50:15;;;;;;;0.20;0.00;;;28.20;40.20;;;;;;5073059;28;20504;-60
2022/07/07 01:52:42;;;;;;;0.82;0.00;;;28.10;40.20;;;;;;5072801;28;20036;-61
2022/07/07 01:55:10;;;;;;;0.00;0.00;;;28.10;40.30;;;;;;5080449;28;20049;-60
2022/07/07 01:57:39;;;;;;;0.68;0.00;;;28.10;40.30;;;;;;5076313;28;20493;-61
2022/07/07 02:00:07;;;;;;;0.28;0.10;;;28.10;40.30;;;;;;5075621;28;20051;-60
2022/07/07 02:02:34;;;;;;;2.17;0.05;;;28.10;40.40;;;;;;5082684;28;20071;-60
2022/07/07 02:05:01;;;;;;;0.47;0.10;;;28.00;40.30;;;;;;5070404;28;20055;-60
2022/07/07 02:07:29;;;;;;;0.10;0.10;;;28.00;40.50;;;;;;5076791;28;20049;-60
2022/07/07 02:09:56;;;;;;;0.10;0.00;;;28.00;40.60;;;;;;5073097;28;20041;-60
2022/07/07 02:12:23;;;;;;;2.28;0.10;;;28.00;40.60;;;;;;5078308;28;20145;-63
2022/07/07 02:14:51;;;;;;;0.13;0.00;;;28.00;41.30;;;;;;5074659;28;20508;-61
2022/07/07 02:17:18;;;;;;;0.73;0.00;;;28.00;40.70;;;;;;5073201;28;20115;-61
2022/07/07 02:19:45;;;;;;;0.05;0.00;;;28.00;40.70;;;;;;5068250;28;20500;-60
2022/07/07 02:22:12;;;;;;;0.47;0.10;;;28.00;40.80;;;;;;5076476;28;20048;-60
2022/07/07 02:24:39;;;;;;;0.20;0.00;;;27.90;40.90;;;;;;5081830;28;20078;-60
2022/07/07 02:27:06;;;;;;;0.57;0.10;;;27.90;40.90;;;;;;5079527;28;20040;-59
2022/07/07 02:29:33;;;;;;;0.70;0.00;;;27.90;40.80;;;;;;5072055;28;20043;-61
2022/07/07 02:32:02;;;;;;;0.55;0.10;;;27.90;40.90;;;;;;5057243;28;20052;-60
2022/07/07 02:34:29;;;;;;;0.10;0.00;;;27.90;40.90;;;;;;5070804;28;20405;-60
2022/07/07 02:36:56;;;;;;;0.08;0.00;;;27.90;41.00;;;;;;5075102;28;20492;-59
2022/07/07 02:39:23;;;;;;;0.05;0.00;;;27.90;41.00;;;;;;5076728;28;20040;-59
2022/07/07 02:41:50;;;;;;;0.10;0.03;;;27.90;41.00;;;;;;5071945;28;20037;-59
2022/07/07 02:44:17;;;;;;;0.00;0.00;;;27.80;41.00;;;;;;5067792;28;20028;-60
2022/07/07 02:46:44;;;;;;;0.93;0.10;;;27.80;41.10;;;;;;5070166;28;20139;-59
2022/07/07 02:49:12;;;;;;;0.03;0.00;;;27.80;41.20;;;;;;5076769;28;20082;-59
2022/07/07 02:51:39;;;;;;;0.38;0.10;;;27.80;41.30;;;;;;5071386;28;20394;-60
2022/07/07 02:54:06;;;;;;;0.10;0.10;;;27.80;41.30;;;;;;5073254;28;20040;-61
2022/07/07 02:56:33;;;;;;;0.00;0.00;;;27.80;41.40;;;;;;5071374;28;20044;-61
2022/07/07 02:59:00;;;;;;;0.10;0.05;;;27.80;41.30;;;;;;5072294;28;20043;-61
2022/07/07 03:01:27;;;;;;;0.15;0.10;;;27.90;41.40;;;;;;5056031;28;20187;-60
2022/07/07 03:03:54;;;;;;;0.45;0.10;;;27.90;41.40;;;;;;5075819;28;20054;-60
2022/07/07 03:06:23;;;;;;;0.10;0.10;;;27.90;42.00;;;;;;5078954;28;20127;-60
2022/07/07 03:08:50;;;;;;;0.40;0.10;;;27.90;41.40;;;;;;5071090;28;20039;-60
2022/07/07 03:11:17;;;;;;;0.38;0.10;;;27.90;41.40;;;;;;5069650;28;20105;-60
2022/07/07 03:13:44;;;;;;;0.75;0.10;;;27.90;41.40;;;;;;5071436;28;20054;-60
2022/07/07 03:16:11;;;;;;;0.10;0.10;;;27.90;41.40;;;;;;5083967;28;20048;-60
2022/07/07 03:18:38;;;;;;;0.30;0.10;;;27.90;41.40;;;;;;5070506;28;20386;-60
2022/07/07 03:21:05;;;;;;;0.10;0.10;;;27.90;41.40;;;;;;5075244;28;20040;-61
2022/07/07 03:23:34;;;;;;;1.27;0.10;;;27.90;41.40;;;;;;5074391;28;20047;-60
2022/07/07 03:26:01;;;;;;;1.48;0.10;;;27.90;41.40;;;;;;5073410;28;20036;-60
2022/07/07 03:28:28;;;;;;;0.10;0.10;;;27.90;41.40;;;;;;5072478;28;20047;-59
2022/07/07 03:30:55;;;;;;;0.77;0.10;;;27.90;41.40;;;;;;5091528;28;20084;-59
2022/07/07 03:33:22;;;;;;;2.35;0.10;;;27.90;41.40;;;;;;5070696;28;20048;-60
2022/07/07 03:35:49;;;;;;;1.10;0.10;;;27.90;41.40;;;;;;5075621;28;20044;-60
2022/07/07 03:38:16;;;;;;;0.10;0.10;;;27.90;41.40;;;;;;5078452;28;20043;-60
2022/07/07 03:40:45;;;;;;;0.10;0.10;;;27.90;41.40;;;;;;5076647;28;20080;-60
2022/07/07 03:43:12;;;;;;;0.25;0.05;;;27.90;41.40;;;;;;5076510;28;20127;-60
2022/07/07 03:45:40;;;;;;;0.10;0.10;;;27.90;41.40;;;;;;5076876;28;20106;-60
2022/07/07 03:48:08;;;;;;;0.20;0.00;;;27.90;41.40;;;;;;5078698;28;20048;-59
2022/07/07 03:50:35;;;;;;;0.50;0.10;;;27.90;41.40;;;;;;5074603;28;20143;-58
2022/07/07 03:53:02;;;;;;;2.00;0.10;;;27.90;41.40;;;;;;5074102;28;20037;-59
2022/07/07 03:55:29;;;;;;;0.52;0.10;;;27.80;41.30;;;;;;5073958;28;20071;-59
2022/07/07 03:57:57;;;;;;;0.20;0.10;;;27.90;41.40;;;;;;5080105;28;20048;-60
2022/07/07 04:00:24;;;;;;;3.55;0.30;;;27.80;41.50;;;;;;5060487;28;20523;-60
2022/07/07 04:02:51;;;;;;;0.68;0.20;;;27.80;41.50;;;;;;5077511;28;20044;-59
2022/07/07 04:05:18;;;;;;;0.10;0.10;;;27.90;41.70;;;;;;5085467;28;20139;-59
2022/07/07 04:07:46;;;;;;;0.30;0.10;;;27.80;41.70;;;;;;5076429;28;20047;-60
2022/07/07 04:10:13;;;;;;;0.45;0.10;;;27.80;41.70;;;;;;5076078;28;20132;-60
2022/07/07 04:12:41;;;;;;;0.60;0.15;;;27.80;41.80;;;;;;5078025;28;20163;-59
2022/07/07 04:15:10;;;;;;;0.10;0.10;;;27.80;41.80;;;;;;5079059;28;20136;-59
2022/07/07 04:17:37;;;;;;;0.28;0.10;;;27.90;41.80;;;;;;5074280;28;20036;-59
2022/07/07 04:20:05;;;;;;;0.63;0.10;;;27.80;41.70;;;;;;5070920;28;20123;-60
2022/07/07 04:22:32;;;;;;;0.32;0.20;;;27.90;41.90;;;;;;5080159;28;20047;-60
2022/07/07 04:24:59;;;;;;;0.30;0.10;;;27.80;41.80;;;;;;5087953;28;20481;-60
2022/07/07 04:27:26;;;;;;;0.10;0.10;;;27.90;41.90;;;;;;5076665;28;20463;-60
2022/07/07 04:29:53;;;;;;;0.35;0.35;;;27.90;41.90;;;;;;5076628;28;20561;-59
2022/07/07 04:32:22;;;;;;;0.10;0.10;;;27.80;41.80;;;;;;5074630;28;20085;-60
2022/07/07 04:34:49;;;;;;;0.75;0.20;;;27.90;42.00;;;;;;5069786;28;20040;-59
2022/07/07 04:37:16;;;;;;;1.27;0.28;;;27.80;41.90;;;;;;5081702;28;20516;-60
2022/07/07 04:39:43;;;;;;;2.55;0.95;;;27.80;41.90;;;;;;5078797;28;20493;-60
2022/07/07 04:42:10;;;;;;;1.08;0.10;;;27.80;41.90;;;;;;5080342;28;20028;-60
2022/07/07 04:44:37;;;;;;;3.25;0.10;;;27.80;41.90;;;;;;5069631;28;20113;-60
2022/07/07 04:47:05;;;;;;;0.63;0.30;;;27.80;42.00;;;;;;5072234;28;20055;-60
2022/07/07 04:49:33;;;;;;;1.73;0.10;;;27.80;42.00;;;;;;5076531;28;20128;-60
2022/07/07 04:52:00;;;;;;;0.40;0.20;;;27.80;42.00;;;;;;5074880;28;20128;-60
2022/07/07 04:54:27;;;;;;;0.43;0.10;;;27.80;42.10;;;;;;5085160;28;20119;-59
2022/07/07 04:56:54;;;;;;;0.10;0.00;;;27.80;42.00;;;;;;5083576;28;20059;-59
2022/07/07 04:59:21;;;;;;;0.17;0.10;;;27.80;42.00;;;;;;5079073;28;20584;-59
2022/07/07 05:01:48;;;;;;;0.13;0.10;;;27.80;42.00;;;;;;5076157;28;20058;-59
2022/07/07 05:04:15;;;;;;;0.40;0.10;;;27.80;42.00;;;;;;5077549;28;20048;-59
2022/07/07 05:06:44;;;;;;;0.63;0.10;;;27.80;42.00;;;;;;5079287;28;20050;-59
2022/07/07 05:09:11;;;;;;;0.10;0.10;;;27.80;42.00;;;;;;5076387;28;20036;-57
2022/07/07 05:11:38;;;;;;;0.10;0.10;;;27.80;42.10;;;;;;5076366;28;20039;-58
2022/07/07 05:14:05;;;;;;;1.17;0.10;;;27.80;42.10;;;;;;5072102;28;20110;-59
2022/07/07 05:16:33;;;;;;;0.90;0.17;;;27.80;42.10;;;;;;5085682;28;20123;-58
2022/07/07 05:19:00;;;;;;;0.75;0.10;;;27.80;42.10;;;;;;5074961;28;20151;-58
2022/07/07 05:21:27;;;;;;;0.85;0.10;;;27.90;42.20;;;;;;5082233;28;20040;-58
2022/07/07 05:23:55;;;;;;;0.50;0.10;;;27.80;42.10;;;;;;5079013;28;20706;-57
2022/07/07 05:26:22;;;;;;;0.63;0.10;;;27.80;42.10;;;;;;5074278;28;20040;-58
2022/07/07 05:28:49;;;;;;;0.68;0.40;;;27.80;42.10;;;;;;5074872;28;20134;-59
2022/07/07 05:31:16;;;;;;;1.00;0.20;;;27.80;42.10;;;;;;5086036;28;20521;-58
2022/07/07 05:33:44;;;;;;;0.85;0.10;;;27.80;42.20;;;;;;5086205;28;20137;-59
2022/07/07 05:36:11;;;;;;;3.35;0.10;;;27.80;42.20;;;;;;5083001;28;20039;-59
2022/07/07 05:38:38;;;;;;;4.32;0.13;;;27.80;42.20;;;;;;5083468;28;20029;-60
2022/07/07 05:41:07;;;;;;;0.20;0.10;;;27.80;42.20;;;;;;5077096;28;20040;-59
2022/07/07 05:43:34;;;;;;;1.45;0.10;;;27.80;42.20;;;;;;5076729;28;20131;-60
2022/07/07 05:46:01;;;;;;;0.57;0.10;;;27.80;42.20;;;;;;5083410;28;20059;-59
2022/07/07 05:48:28;;;;;;;1.25;0.13;;;27.80;42.30;;;;;;5083217;28;20045;-59
2022/07/07 05:50:56;;;;;;;2.83;0.10;;;27.80;42.30;;;;;;5081050;28;20350;-60
2022/07/07 05:53:23;;;;;;;3.10;0.17;;;27.90;42.40;;;;;;5075152;28;20055;-60
2022/07/07 05:55:50;;;;;;;0.25;0.15;;;27.90;42.40;;;;;;5079525;28;20418;-59
2022/07/07 05:58:18;;;;;;;1.00;0.10;;;27.90;42.50;;;;;;5084776;28;20127;-59
2022/07/07 06:00:47;;;;;;;0.30;0.10;;;27.90;42.50;;;;;;5078469;28;20055;-59
2022/07/07 06:03:14;;;;;;;0.45;0.10;;;27.90;42.50;;;;;;5077812;28;20046;-59
2022/07/07 06:05:41;;;;;;;1.85;0.20;;;27.90;42.50;;;;;;5076163;28;20548;-59
2022/07/07 06:08:09;;;;;;;2.15;0.10;;;27.90;42.50;;;;;;5082202;28;20119;-60
2022/07/07 06:10:36;;;;;;;3.45;0.10;;;27.90;42.50;;;;;;5079618;28;20315;-58
2022/07/07 06:13:04;;;;;;;1.58;0.63;;;27.90;42.60;;;;;;5074476;28;20088;-59
2022/07/07 06:15:33;;;;;;;3.38;0.30;;;27.90;42.60;;;;;;5078506;28;20095;-59
2022/07/07 06:18:01;;;;;;;2.95;0.10;;;27.90;42.60;;;;;;5080678;28;20428;-59
2022/07/07 06:20:28;;;;;;;1.45;0.10;;;27.90;42.80;;;;;;5080016;28;20028;-58
2022/07/07 06:22:55;;;;;;;0.93;0.10;;;27.80;42.70;;;;;;5074108;28;20110;-59
2022/07/07 06:25:22;;;;;;;0.30;0.10;;;27.80;42.70;;;;;;5081600;28;20054;-59
2022/07/07 06:27:49;;;;;;;0.30;0.20;;;27.80;42.70;;;;;;5074355;28;20040;-58
2022/07/07 06:30:16;;;;;;;1.77;0.20;;;27.90;42.80;;;;;;5076309;28;20032;-59
2022/07/07 06:32:44;;;;;;;2.60;0.57;;;27.80;42.70;;;;;;5078030;28;20107;-59
2022/07/07 06:35:12;;;;;;;5.68;0.20;;;27.80;42.80;;;;;;5069156;28;20044;-58
2022/07/07 06:37:39;;;;;;;1.77;0.20;;;27.80;43.50;;;;;;5082450;28;20133;-59
2022/07/07 06:40:08;;;;;;;4.90;0.20;;;27.80;42.90;;;;;;5073312;28;20033;-54
2022/07/07 06:42:35;;;;;;;11.70;0.80;;;27.80;43.00;;;;;;5080829;28;20047;-68
2022/07/07 06:45:07;;;;;;;1.92;0.20;;;27.90;44.10;;;;;;5075214;28;20051;-47
2022/07/07 06:47:34;;;;;;;3.03;0.10;;;27.90;44.30;;;;;;5076339;28;20059;-51
2022/07/07 06:50:03;;;;;;;0.60;0.40;;;27.90;44.20;;;;;;5075752;28;20044;-50
2022/07/07 06:52:30;;;;;;;1.98;0.10;;;28.00;44.50;;;;;;5085249;28;20147;-53
2022/07/07 06:54:57;;;;;;;4.38;0.10;;;28.00;44.50;;;;;;5075076;28;20496;-51
2022/07/07 06:57:24;;;;;;;1.13;0.30;;;28.00;44.50;;;;;;5075448;28;20127;-50
2022/07/07 06:59:51;;;;;;;3.35;0.10;;;28.10;44.50;;;;;;5070782;28;20032;-54
2022/07/07 07:02:18;;;;;;;4.47;0.22;;;28.10;44.40;;;;;;5069274;28;20070;-54
2022/07/07 07:04:46;;;;;;;0.57;0.10;;;28.10;44.40;;;;;;5074235;28;20052;-54
2022/07/07 07:07:15;;;;;;;0.68;0.10;;;28.10;44.30;;;;;;5078465;28;20060;-52
2022/07/07 07:09:42;;;;;;;1.27;0.10;;;28.10;44.30;;;;;;5070700;28;20040;-55
2022/07/07 07:12:09;;;;;;;0.65;0.20;;;28.20;44.30;;;;;;5055156;28;20101;-54
2022/07/07 07:14:37;;;;;;;1.92;0.20;;;28.20;44.30;;;;;;5071983;28;20127;-54
2022/07/07 07:17:04;;;;;;;5.30;0.30;;;28.20;44.90;;;;;;5060312;28;20128;-71
2022/07/07 07:19:31;;;;;;;1.05;0.10;;;28.30;44.30;;;;;;5075801;28;20232;-64
2022/07/07 07:21:58;;;;;;;3.60;0.28;;;28.30;45.10;;;;;;5076663;28;20044;-58
2022/07/07 07:24:26;;;;;;;1.83;0.28;;;28.40;45.20;;;;;;5078866;28;20400;-64
2022/07/07 07:26:53;;;;;;;1.35;0.10;;;28.40;45.30;;;;;;5074993;28;20051;-63
2022/07/07 07:29:20;;;;;;;0.60;0.10;;;28.50;45.40;;;;;;5074435;28;20042;-64
2022/07/07 07:31:48;;;;;;;0.90;0.10;;;28.60;45.40;;;;;;5080762;28;20052;-63
2022/07/07 07:34:15;;;;;;;0.65;0.40;;;28.70;45.20;;;;;;5072739;28;20047;-63
2022/07/07 07:36:42;;;;;;;2.65;0.10;;;28.80;45.10;;;;;;5077785;28;20752;-61
2022/07/07 07:39:09;;;;;;;0.80;0.13;;;29.00;44.90;;;;;;5078611;28;20050;-61
2022/07/07 07:41:37;;;;;;;1.20;0.10;;;29.10;44.60;;;;;;5079953;28;20047;-57
2022/07/07 07:44:04;;;;;;;0.17;0.10;;;29.30;44.40;;;;;;5066938;28;20055;-58
2022/07/07 07:46:32;;;;;;;0.32;0.30;;;29.40;44.30;;;;;;5072643;28;20057;-56
2022/07/07 07:49:00;;;;;;;1.17;0.40;;;29.60;44.00;;;;;;5077177;28;20480;-61
2022/07/07 07:51:28;;;;;;;0.38;0.13;;;29.70;43.80;;;;;;5071177;28;20044;-73
2022/07/07 07:53:55;;;;;;;0.95;0.10;;;29.80;43.70;;;;;;5062815;28;20048;-72
2022/07/07 07:56:22;;;;;;;1.45;0.20;;;30.00;43.50;;;;;;5074572;28;20044;-75
2022/07/07 07:58:51;;;;;;;2.22;0.50;;;30.10;43.20;;;;;;5072892;28;20165;-68
2022/07/07 08:01:18;;;;;;;0.73;0.10;;;30.20;43.10;;;;;;5075508;28;20051;-70
2022/07/07 08:03:45;;;;;;;0.13;0.10;;;30.30;42.90;;;;;;5077038;28;20041;-69
2022/07/07 08:06:12;;;;;;;0.82;0.10;;;30.40;42.80;;;;;;5082074;28;20583;-70
2022/07/07 08:08:39;;;;;;;1.45;0.10;;;30.50;42.60;;;;;;5074618;28;20073;-71
2022/07/07 08:11:06;;;;;;;1.05;0.45;;;30.60;42.70;;;;;;5087600;28;20037;-65
2022/07/07 08:13:33;;;;;;;0.60;0.20;;;30.60;42.50;;;;;;5088386;28;20044;-66
2022/07/07 08:16:01;;;;;;;0.30;0.10;;;30.70;42.40;;;;;;5078062;28;20569;-52
2022/07/07 08:18:29;;;;;;;0.40;0.10;;;30.80;42.40;;;;;;5071520;28;20043;-54
2022/07/07 08:20:57;;;;;;;0.60;0.10;;;30.80;42.30;;;;;;5073894;28;20083;-57
2022/07/07 08:23:24;;;;;;;0.50;0.20;;;30.90;42.30;;;;;;5083372;28;20042;-68
2022/07/07 08:25:51;;;;;;;1.63;0.15;;;31.00;42.30;;;;;;5079193;28;20126;-62
2022/07/07 08:28:18;;;;;;;1.20;0.38;;;31.00;42.10;;;;;;5073787;28;20047;-70
2022/07/07 08:30:45;;;;;;;1.50;0.30;;;31.00;41.90;;;;;;5076895;28;20802;-64
2022/07/07 08:33:13;;;;;;;1.80;0.28;;;31.10;42.10;;;;;;5078967;28;20043;-74
2022/07/07 08:35:40;;;;;;;0.60;0.30;;;31.20;41.90;;;;;;5048512;28;20044;-62
2022/07/07 08:38:07;;;;;;;0.90;0.10;;;31.20;41.80;;;;;;5078378;28;20044;-62
2022/07/07 08:40:35;;;;;;;0.28;0.17;;;31.20;42.20;;;;;;5075458;28;20068;-62
2022/07/07 08:43:02;;;;;;;1.58;0.17;;;31.30;41.60;;;;;;5074965;28;20073;-57
2022/07/07 08:45:29;;;;;;;0.25;0.10;;;31.30;41.50;;;;;;5076293;28;20106;-68
2022/07/07 08:47:56;;;;;;;3.80;0.30;;;31.40;41.50;;;;;;5079048;28;20036;-58
2022/07/07 08:50:26;;;;;;;0.50;0.20;;;31.40;41.80;;;;;;5073883;28;20028;-55
2022/07/07 08:52:54;;;;;;;0.20;0.20;;;31.40;41.70;;;;;;5075705;28;20067;-57
2022/07/07 08:55:23;;;;;;;0.68;0.10;;;31.40;41.60;;;;;;5078112;28;20040;-58
2022/07/07 08:57:50;;;;;;;1.27;0.10;;;31.40;41.70;;;;;;5068257;28;20054;-59
2022/07/07 09:00:18;;;;;;;2.25;0.10;;;31.50;41.70;;;;;;5074392;28;20394;-55
2022/07/07 09:02:45;;;;;;;1.08;0.77;;;31.50;41.80;;;;;;5079718;28;20412;-54
2022/07/07 09:05:12;;;;;;;1.55;0.10;;;31.50;41.80;;;;;;5070568;28;20075;-56
2022/07/07 09:07:48;;;;;;;0.77;0.10;;;31.60;42.00;;;;;;5081557;28;20135;-51
2022/07/07 09:10:31;;;;;;;0.82;0.10;;;31.60;41.90;;;;;;5050894;28;20116;-59
2022/07/07 09:12:59;;;;;;;0.70;0.20;;;31.60;41.90;;;;;;5084258;28;20036;-60
2022/07/07 09:15:27;;;;;;;1.25;0.10;;;31.60;42.00;;;;;;5078765;28;20040;-59
2022/07/07 09:17:54;;;;;;;0.20;0.10;;;31.60;41.90;;;;;;5074789;28;20047;-56
2022/07/07 09:20:23;;;;;;;0.45;0.10;;;31.60;41.90;;;;;;5068685;28;20414;-56
2022/07/07 09:22:52;;;;;;;0.30;0.10;;;31.60;41.80;;;;;;5080275;28;20614;-58
2022/07/07 09:25:21;;;;;;;0.30;0.10;;;31.70;41.90;;;;;;5074609;28;20117;-66
2022/07/07 09:27:54;;;;;;;0.30;0.10;;;31.70;41.80;;;;;;5076176;28;20059;-61
2022/07/07 09:30:37;;;;;;;0.60;0.10;;;31.70;41.80;;;;;;5077885;28;20081;-59
2022/07/07 09:33:06;;;;;;;0.65;0.65;;;31.70;41.70;;;;;;5062024;28;20199;-54
2022/07/07 09:38:25;;;;;;;3.88;0.10;;;31.60;41.60;;;;;;5077087;28;20048;-59
2022/07/07 09:41:02;;;;;;;0.30;0.30;;;31.60;41.70;;;;;;5080424;28;20509;-59
2022/07/07 09:43:31;;;;;;;0.95;0.10;;;31.60;41.80;;;;;;5068717;28;20086;-57
2022/07/07 09:46:14;;;;;;;0.25;0.20;;;31.60;41.80;;;;;;5078744;28;20119;-61
2022/07/07 09:48:45;;;;;;;0.10;0.10;;;31.70;42.00;;;;;;5077842;28;20037;-60
2022/07/07 09:51:18;;;;;;;0.10;0.10;;;31.60;41.90;;;;;;5072146;28;20060;-60
2022/07/07 09:54:04;;;;;;;0.52;0.10;;;31.60;41.90;;;;;;5077381;28;20125;-72
2022/07/07 09:56:34;;;;;;;0.17;0.03;;;31.70;41.80;;;;;;5069331;28;20048;-71
2022/07/07 09:59:04;;;;;;;0.10;0.08;;;31.60;41.80;;;;;;5066841;28;20051;-70
2022/07/07 10:01:33;;;;;;;0.85;0.10;;;31.70;41.90;;;;;;5072046;28;20045;-70
2022/07/07 10:04:03;;;;;;;0.17;0.00;;;31.70;41.90;;;;;;5076864;28;20040;-69
2022/07/07 10:06:32;;;;;;;0.55;0.10;;;31.70;41.90;;;;;;5079115;28;20076;-68
2022/07/07 10:09:04;;;;;;;0.10;0.10;;;31.80;42.00;;;;;;5072285;28;20040;-59
2022/07/07 10:11:39;;;;;;;0.35;0.00;;;31.80;41.90;;;;;;5075359;28;20074;-59
2022/07/07 10:14:12;;;;;;;1.20;0.20;;;31.80;41.90;;;;;;5071882;28;20037;-61
2022/07/07 10:16:40;;;;;;;2.42;0.10;;;31.90;42.00;;;;;;5085721;28;20086;-62
2022/07/07 10:19:10;;;;;;;9.63;0.25;;;32.00;41.90;;;;;;5078300;28;20033;-62
2022/07/07 10:21:37;;;;;;;13.98;2.03;;;32.00;42.60;;;;;;5079820;28;20556;-64
2022/07/07 10:24:09;;;;;;;14.40;1.27;;;32.10;43.70;;;;;;5078759;28;20037;-61
2022/07/07 10:26:38;;;;;;;12.80;1.17;;;32.10;44.20;;;;;;5075804;28;20120;-61
2022/07/07 10:29:08;;;;;;;7.00;0.50;;;32.10;44.50;;;;;;5083458;28;20783;-61
2022/07/07 10:31:35;;;;;;;8.95;0.60;;;32.10;44.50;;;;;;5074241;28;20043;-62
2022/07/07 10:34:05;;;;;;;7.95;0.82;;;32.10;44.50;;;;;;5072811;28;20045;-62
2022/07/07 10:37:03;;;;;;;7.72;0.50;;;32.20;44.30;;;;;;5060984;28;20820;-62
2022/07/07 10:39:35;;;;;;;3.50;1.00;;;32.20;44.10;;;;;;5073866;28;20040;-62
2022/07/07 10:42:43;;;;;;;10.15;1.15;;;32.20;44.00;;;;;;5071597;28;20048;-61
2022/07/07 10:45:14;;;;;;;6.90;0.47;;;32.20;43.80;;;;;;4971921;28;20125;-61
2022/07/07 10:47:41;;;;;;;4.43;0.65;;;32.20;43.80;;;;;;4963264;28;20129;-62
2022/07/07 10:50:25;;;;;;;11.70;0.40;;;32.20;43.70;;;;;;4970819;28;20467;-61
2022/07/07 10:52:53;;;;;;;6.18;0.50;;;32.30;43.60;;;;;;4979944;28;20058;-62
2022/07/07 10:55:21;;;;;;;10.60;0.43;;;32.30;43.60;;;;;;4974309;28;20082;-62
2022/07/07 10:57:49;;;;;;;9.07;0.45;;;32.30;43.50;;;;;;4974642;28;20058;-61
2022/07/07 11:00:18;;;;;;;2.95;0.30;;;32.30;43.40;;;;;;4974419;28;20050;-62
2022/07/07 11:02:48;;;;;;;5.22;0.90;;;32.20;43.20;;;;;;4979891;28;20054;-61
2022/07/07 11:05:34;;;;;;;3.78;0.20;;;32.30;43.10;;;;;;4968514;28;20567;-61
2022/07/07 11:08:15;;;;;;;3.17;0.25;;;32.30;43.00;;;;;;4966054;28;20469;-61
2022/07/07 11:10:52;;;;;;;6.63;0.50;;;32.30;43.00;;;;;;4980616;28;20142;-61
2022/07/07 11:13:22;;;;;;;0.68;0.47;;;32.20;42.80;;;;;;4974785;28;20042;-62
2022/07/07 11:15:50;;;;;;;1.55;0.10;;;32.20;42.80;;;;;;4975172;28;20051;-60
2022/07/07 11:18:19;;;;;;;2.75;0.10;;;32.20;42.70;;;;;;4973998;28;20070;-61
2022/07/07 11:20:54;;;;;;;2.47;0.10;;;32.20;42.60;;;;;;4994261;28;20168;-61
2022/07/07 11:23:22;;;;;;;;;;;32.20;42.50;;;;;;5074253;28;20050;-61
2022/07/07 11:25:56;;;;;;;2.63;0.10;;;32.20;42.50;;;;;;5085662;28;19928;-60
2022/07/07 11:28:25;;;;;;;2.85;0.30;;;32.10;42.50;;;;;;5072432;28;20571;-61
2022/07/07 11:31:01;;;;;;;3.38;0.10;;;32.10;42.40;;;;;;5076237;28;20531;-61
2022/07/07 11:33:28;;;;;;;0.38;0.10;;;32.20;42.30;;;;;;5070602;28;20056;-61
2022/07/07 11:35:55;;;;;;;3.08;0.17;;;32.10;42.10;;;;;;5073268;28;20059;-62
2022/07/07 11:38:27;;;;;;;3.15;0.20;;;32.20;42.00;;;;;;5073158;28;20044;-62
2022/07/07 11:40:56;;;;;;;0.10;0.10;;;32.20;41.80;;;;;;5067806;28;20037;-64
2022/07/07 11:43:23;;;;;;;0.82;0.10;;;32.10;41.70;;;;;;5068141;28;20124;-61
2022/07/07 11:45:51;;;;;;;0.75;0.10;;;32.10;41.60;;;;;;5073102;28;20046;-60
2022/07/07 11:48:19;;;;;;;1.00;0.10;;;32.10;41.50;;;;;;5076649;28;20515;-61
2022/07/07 11:50:47;;;;;;;0.98;0.17;;;32.20;41.50;;;;;;5072755;28;20054;-61
2022/07/07 11:53:15;;;;;;;2.47;0.17;;;32.10;41.40;;;;;;5068472;28;20045;-61
2022/07/07 11:55:43;;;;;;;1.30;0.75;;;32.20;42.00;;;;;;5071550;28;20075;-61
2022/07/07 11:58:12;;;;;;;0.98;0.10;;;32.10;41.30;;;;;;5080499;28;20045;-61
2022/07/07 12:00:41;;;;;;;0.30;0.10;;;32.10;41.20;;;;;;5074047;28;20769;-61
2022/07/07 12:03:09;;;;;;;0.63;0.17;;;32.10;41.10;;;;;;5078258;28;20028;-58
2022/07/07 12:05:38;;;;;;;0.75;0.08;;;32.10;41.00;;;;;;5075713;28;20668;-61
2022/07/07 12:08:07;;;;;;;0.60;0.20;;;32.10;41.00;;;;;;5076161;28;20044;-61
2022/07/07 12:10:36;;;;;;;1.92;0.50;;;32.10;41.00;;;;;;5072874;28;20048;-61
2022/07/07 12:13:05;;;;;;;0.38;0.10;;;32.10;41.00;;;;;;5079081;28;20249;-61
2022/07/07 12:15:36;;;;;;;0.40;0.10;;;32.10;41.00;;;;;;5080049;28;20040;-61
2022/07/07 12:18:05;;;;;;;0.17;0.17;;;32.10;41.00;;;;;;5074082;28;20527;-61
2022/07/07 12:20:32;;;;;;;0.25;0.10;;;32.10;41.00;;;;;;5074174;28;20136;-60
2022/07/07 12:23:01;;;;;;;0.25;0.05;;;32.10;41.00;;;;;;5076913;28;20039;-61
2022/07/07 12:25:29;;;;;;;0.10;0.10;;;32.10;41.00;;;;;;5089807;28;20036;-61
2022/07/07 12:27:58;;;;;;;0.20;0.20;;;32.10;41.00;;;;;;5078475;28;20169;-61
2022/07/07 12:30:26;;;;;;;0.30;0.10;;;32.10;40.90;;;;;;5080668;28;20035;-61
2022/07/07 12:32:55;;;;;;;0.73;0.10;;;32.10;40.90;;;;;;5077482;28;20123;-61
2022/07/07 12:35:37;;;;;;;0.30;0.05;;;32.10;40.80;;;;;;5051697;28;20036;-61
2022/07/07 12:38:05;;;;;;;0.30;0.00;;;32.10;40.70;;;;;;5075499;28;20071;-61
2022/07/07 12:40:34;;;;;;;0.95;0.08;;;32.10;40.70;;;;;;5077768;28;20510;-61
2022/07/07 12:43:06;;;;;;;0.22;0.10;;;32.10;40.70;;;;;;5076802;28;20090;-61
2022/07/07 12:45:33;;;;;;;2.30;0.20;;;32.10;40.60;;;;;;5075950;28;20119;-61
2022/07/07 12:48:02;;;;;;;0.43;0.10;;;32.10;40.50;;;;;;5076388;28;20036;-61
2022/07/07 12:50:29;;;;;;;2.03;0.20;;;32.10;40.40;;;;;;5074502;28;20406;-61
2022/07/07 12:52:58;;;;;;;1.17;0.15;;;32.10;40.30;;;;;;5071407;28;20032;-62
2022/07/07 12:55:36;;;;;;;2.85;0.40;;;32.10;40.10;;;;;;5077253;28;20048;-61
2022/07/07 12:58:19;;;;;;;2.95;0.20;;;32.10;40.00;;;;;;5081407;28;20595;-61